Aeroporto :
LOGIN :

Iscrizione | Disclaimer

   EN    FR    IT 

 










Sommario :    VFR   VFR Marginale   IFR   IFR Intensivo   IFR Molto Intensivo
Visibilità : 
Base nubi : 
>= 8 km
>= 3000ft
5 / 8 km
1000 / 3000 ft
1500m / 5 km
500 / 1000 ft
800 / 1500m
200 / 500 ft
< 800m
< 200 ft
Simboli :   Temporali  Nebbia  Neve Forte  Precipitazioni Forti  Vento > 20 kt
SIGMETs :   Varie  Temporali  Ghiacco  Turbolenza  Onda orograficha  Ceneri Vulcaniche






- Altitudine del aeroporto : 768 ft
- Codice IATA : MXP


LIMC - Milano Malpensa

ULTIMO METAR :
  • 051350Z 23008KT 200V260 CAVOK 27/16 Q1007 NOSIG

METARs OBSOLETI :
  • 051320Z 23006KT 190V270 CAVOK 27/17 Q1007 NOSIG
  • 051250Z 24006KT 200V290 CAVOK 26/18 Q1007 NOSIG
  • 051220Z 22007KT 160V270 CAVOK 26/18 Q1007 NOSIG
  • 051150Z 23009KT 200V260 CAVOK 26/19 Q1007 NOSIG
  • 051120Z 24007KT 190V270 CAVOK 25/19 Q1007 NOSIG

TAF TAF LIMC
Valido dal 05 a 12 ore il 06 a 18 ore UTC


051100Z 0512/0618 22010KT 9999 FEW040
BECMG 0515/0517 VRB05KT



MetMap, La meteo Aeronautica in un colpo d'occhio ! - Copyright ORBIFLY Dicembre 2007 - Disclaimer

ORBIFLY MET'MAP TEAM :

Programmazione e sviluppo : Alexandra Zaïnal
Concezione : Baudouin d'Aumeries
Aiuto per la programmazione : Marc-Olivier Méhu
Supporto tecnico e logistico : Manuel Goepfert
Aiuto per la traduzione : Arnaldo La Scala

Contatto : metmap@orbifly.com




FONTI E CREDITI :

   NOAA